Time;durP1;ratioP1;P1;durP2;ratioP2;P2;SDS_P1;SDS_P2;PMS_P1;PMS_P2;Temp;Humidity;BMP_temperature;BMP_pressure;BME280_temperature;BME280_humidity;BME280_pressure;Samples;Min_cycle;Max_cycle;Signal;HPM_P1;HPM_P2
2021/12/14 00:03:40;;;;;;;;;;;9.00;99.90;;;;;;8384211;28;19928;-70
2021/12/14 00:07:42;;;;;;;;;;;9.00;99.90;;;;;;8391482;28;19980;-70
2021/12/14 00:15:46;;;;;;;;;;;9.00;99.90;;;;;;8391027;28;19968;-70
2021/12/14 00:19:49;;;;;;;;;;;9.00;99.90;;;;;;8377994;28;19924;-70
2021/12/14 00:24:07;;;;;;;;;;;8.90;99.90;;;;;;8382236;28;19931;-70
2021/12/14 00:28:12;;;;;;;;;;;8.90;99.90;;;;;;8387302;28;19929;-70
2021/12/14 00:32:19;;;;;;;;;;;8.90;99.90;;;;;;8367839;28;19960;-70
2021/12/14 00:36:21;;;;;;;;;;;8.90;99.90;;;;;;8393829;28;20392;-70
2021/12/14 00:40:28;;;;;;;;;;;8.90;99.90;;;;;;8386458;28;19971;-70
2021/12/14 00:44:31;;;;;;;;;;;8.90;99.90;;;;;;8388407;28;19928;-70
2021/12/14 00:48:32;;;;;;;;;;;8.90;99.90;;;;;;8381609;28;19924;-70
2021/12/14 00:52:34;;;;;;;;;;;8.90;99.90;;;;;;8371979;28;19967;-70
2021/12/14 00:56:36;;;;;;;;;;;8.90;99.90;;;;;;8384924;28;19924;-70
2021/12/14 01:00:58;;;;;;;;;;;8.90;99.90;;;;;;8383062;28;20284;-70
2021/12/14 01:05:01;;;;;;;;;;;8.90;99.90;;;;;;8387548;28;20195;-70
2021/12/14 01:09:05;;;;;;;;;;;8.90;99.90;;;;;;8387221;28;19971;-70
2021/12/14 01:13:09;;;;;;;;;;;8.90;99.90;;;;;;8373916;28;19960;-70
2021/12/14 01:17:24;;;;;;;;;;;8.90;99.90;;;;;;8375280;28;19963;-70
2021/12/14 01:25:37;;;;;;;;;;;8.90;99.90;;;;;;8387752;28;20237;-70
2021/12/14 01:29:39;;;;;;;;;;;8.80;99.90;;;;;;8358514;28;19937;-70
2021/12/14 01:33:44;;;;;;;;;;;8.90;99.90;;;;;;8386105;28;19967;-71
2021/12/14 01:37:59;;;;;;;;;;;8.90;99.90;;;;;;8384235;28;19924;-71
2021/12/14 01:42:06;;;;;;;;;;;8.90;99.90;;;;;;8377047;28;19929;-70
2021/12/14 01:46:11;;;;;;;;;;;8.80;99.90;;;;;;8366255;28;19924;-70
2021/12/14 01:50:15;;;;;;;;;;;8.80;99.90;;;;;;8375441;28;19935;-70
2021/12/14 01:54:19;;;;;;;;;;;8.80;99.90;;;;;;8400745;28;19998;-70
2021/12/14 01:58:22;;;;;;;;;;;8.80;99.90;;;;;;8389361;28;19924;-70
2021/12/14 02:02:31;;;;;;;;;;;8.80;99.90;;;;;;8389496;28;19972;-70
2021/12/14 02:06:33;;;;;;;;;;;8.80;99.90;;;;;;8402801;28;19924;-70
2021/12/14 02:10:37;;;;;;;;;;;8.80;99.90;;;;;;8379698;28;19998;-70
2021/12/14 02:14:38;;;;;;;;;;;8.80;99.90;;;;;;8383693;28;19924;-70
2021/12/14 02:18:47;;;;;;;;;;;8.80;99.90;;;;;;8369095;28;19925;-70
2021/12/14 02:22:49;;;;;;;;;;;8.80;99.90;;;;;;8382900;28;19932;-70
2021/12/14 02:26:52;;;;;;;;;;;8.80;99.90;;;;;;8382248;28;19929;-70
2021/12/14 02:30:55;;;;;;;;;;;8.80;99.90;;;;;;8363992;28;19940;-70
2021/12/14 02:35:00;;;;;;;;;;;8.80;99.90;;;;;;8384942;28;19970;-70
2021/12/14 02:39:07;;;;;;;;;;;8.80;99.90;;;;;;8384451;28;19925;-70
2021/12/14 02:43:09;;;;;;;;;;;8.80;99.90;;;;;;8388813;28;19928;-70
2021/12/14 02:47:13;;;;;;;;;;;8.70;99.90;;;;;;8381900;28;19999;-70
2021/12/14 02:51:21;;;;;;;;;;;8.70;99.90;;;;;;8384200;28;19929;-70
2021/12/14 02:55:24;;;;;;;;;;;8.70;99.90;;;;;;8371513;28;19978;-70
2021/12/14 02:59:28;;;;;;;;;;;8.70;99.90;;;;;;8375564;28;19932;-70
2021/12/14 03:03:29;;;;;;;;;;;8.60;99.90;;;;;;8384011;28;19940;-70
2021/12/14 03:07:35;;;;;;;;;;;8.60;99.90;;;;;;8388158;28;20470;-70
2021/12/14 03:11:37;;;;;;;;;;;8.60;99.90;;;;;;8352115;28;19931;-70
2021/12/14 03:15:46;;;;;;;;;;;8.60;99.90;;;;;;8366992;28;19936;-70
2021/12/14 03:19:56;;;;;;;;;;;8.60;99.90;;;;;;8364474;28;20397;-70
2021/12/14 03:24:04;;;;;;;;;;;8.60;99.90;;;;;;8377524;28;19964;-70
2021/12/14 03:28:06;;;;;;;;;;;8.60;99.90;;;;;;8371006;28;20400;-70
2021/12/14 03:32:08;;;;;;;;;;;8.60;99.90;;;;;;8367131;28;20399;-70
2021/12/14 03:36:12;;;;;;;;;;;8.70;99.90;;;;;;8380706;28;19972;-70
2021/12/14 03:40:14;;;;;;;;;;;8.70;99.90;;;;;;8372570;28;19931;-70
2021/12/14 03:44:24;;;;;;;;;;;8.70;99.90;;;;;;8372343;28;19928;-70
2021/12/14 03:48:27;;;;;;;;;;;8.70;99.90;;;;;;8370633;28;20047;-70
2021/12/14 03:52:33;;;;;;;;;;;8.70;99.90;;;;;;8373567;28;19931;-70
2021/12/14 03:56:35;;;;;;;;;;;8.70;99.90;;;;;;8374883;28;20369;-70
2021/12/14 04:00:38;;;;;;;;;;;8.70;99.90;;;;;;8369799;28;19924;-70
2021/12/14 04:04:43;;;;;;;;;;;8.70;99.90;;;;;;8375958;28;19936;-70
2021/12/14 04:08:45;;;;;;;;;;;8.60;99.90;;;;;;8368240;28;19924;-70
2021/12/14 04:12:47;;;;;;;;;;;8.60;99.90;;;;;;8372284;28;20361;-70
2021/12/14 04:16:50;;;;;;;;;;;8.60;99.90;;;;;;8374797;28;19967;-69
2021/12/14 04:20:55;;;;;;;;;;;8.60;99.90;;;;;;8372970;28;19929;-70
2021/12/14 04:24:58;;;;;;;;;;;8.60;99.90;;;;;;8377707;28;19931;-70
2021/12/14 04:29:00;;;;;;;;;;;8.60;99.90;;;;;;8373282;28;19991;-70
2021/12/14 04:33:07;;;;;;;;;;;8.60;99.90;;;;;;8368696;28;19925;-70
2021/12/14 04:37:09;;;;;;;;;;;8.60;99.90;;;;;;8356826;28;19925;-70
2021/12/14 04:54:01;;;;;;;;;;;8.60;99.90;;;;;;8385248;28;19972;-70
2021/12/14 04:58:03;;;;;;;;;;;8.60;99.90;;;;;;8381954;28;20355;-69
2021/12/14 05:02:11;;;;;;;;;;;8.60;99.90;;;;;;8357991;28;19978;-70
2021/12/14 05:06:16;;;;;;;;;;;8.50;99.90;;;;;;8382348;28;19924;-70
2021/12/14 05:10:19;;;;;;;;;;;8.50;99.90;;;;;;8376646;28;20384;-70
2021/12/14 05:14:23;;;;;;;;;;;8.40;99.90;;;;;;8365474;28;19932;-70
2021/12/14 05:18:25;;;;;;;;;;;8.40;99.90;;;;;;8390808;28;19964;-70
2021/12/14 05:22:28;;;;;;;;;;;8.40;99.90;;;;;;8379770;28;20007;-70
2021/12/14 05:26:31;;;;;;;;;;;8.40;99.90;;;;;;8395980;28;20299;-70
2021/12/14 05:30:36;;;;;;;;;;;8.40;99.90;;;;;;8388999;28;19975;-70
2021/12/14 05:34:38;;;;;;;;;;;8.40;99.90;;;;;;8374437;28;19924;-70
2021/12/14 05:38:58;;;;;;;;;;;8.40;99.90;;;;;;8388246;28;19932;-70
2021/12/14 05:43:20;;;;;;;;;;;8.40;99.90;;;;;;8372299;28;20062;-70
2021/12/14 05:47:22;;;;;;;;;;;8.40;99.90;;;;;;8391780;28;19972;-70
2021/12/14 05:51:23;;;;;;;;;;;8.40;99.90;;;;;;8385991;28;19928;-70
2021/12/14 05:55:26;;;;;;;;;;;8.50;99.90;;;;;;8382674;28;19971;-70
2021/12/14 05:59:29;;;;;;;;;;;8.40;99.90;;;;;;8395174;28;19971;-70
2021/12/14 06:03:35;;;;;;;;;;;8.40;99.90;;;;;;8393712;28;20388;-70
2021/12/14 06:07:37;;;;;;;;;;;8.40;99.90;;;;;;8390354;28;19924;-70
2021/12/14 06:11:38;;;;;;;;;;;8.40;99.90;;;;;;8379666;28;19956;-70
2021/12/14 06:15:40;;;;;;;;;;;8.40;99.90;;;;;;8387511;28;19933;-70
2021/12/14 06:19:48;;;;;;;;;;;8.40;99.90;;;;;;8391168;28;19956;-70
2021/12/14 06:23:59;;;;;;;;;;;8.50;99.90;;;;;;8381494;28;19925;-70
2021/12/14 06:28:02;;;;;;;;;;;8.40;99.90;;;;;;8377983;28;19932;-70
2021/12/14 06:32:05;;;;;;;;;;;8.50;99.90;;;;;;8380780;28;19964;-70
2021/12/14 06:36:15;;;;;;;;;;;8.50;99.90;;;;;;8383239;28;19925;-70
2021/12/14 06:45:20;;;;;;;;;;;8.40;99.90;;;;;;8382569;28;19935;-70
2021/12/14 06:49:23;;;;;;;;;;;8.40;99.90;;;;;;8392535;28;20308;-70
2021/12/14 06:53:25;;;;;;;;;;;8.40;99.90;;;;;;8365333;28;19948;-70
2021/12/14 06:57:27;;;;;;;;;;;8.40;99.90;;;;;;8385977;28;20333;-70
2021/12/14 07:01:31;;;;;;;;;;;8.40;99.90;;;;;;8380873;28;19925;-70
2021/12/14 07:05:33;;;;;;;;;;;8.40;99.90;;;;;;8375747;28;19924;-70
2021/12/14 07:09:40;;;;;;;;;;;8.40;99.90;;;;;;8392692;28;19964;-70
2021/12/14 07:13:42;;;;;;;;;;;8.40;99.90;;;;;;8390102;28;19924;-70
2021/12/14 07:17:49;;;;;;;;;;;8.40;99.90;;;;;;8382800;28;19932;-70
2021/12/14 07:21:50;;;;;;;;;;;8.50;99.90;;;;;;8394067;28;19939;-70
2021/12/14 07:26:13;;;;;;;;;;;8.50;99.90;;;;;;8373787;28;19925;-70
2021/12/14 07:30:18;;;;;;;;;;;8.50;99.90;;;;;;8374814;28;19925;-70
2021/12/14 07:34:20;;;;;;;;;;;8.50;99.90;;;;;;8375802;28;19936;-70
2021/12/14 07:38:22;;;;;;;;;;;8.40;99.90;;;;;;8391075;28;19932;-70
2021/12/14 07:42:24;;;;;;;;;;;8.40;99.90;;;;;;8384859;28;19940;-70
2021/12/14 07:47:01;;;;;;;;;;;8.40;99.90;;;;;;8385543;28;19968;-70
2021/12/14 07:51:03;;;;;;;;;;;8.40;99.90;;;;;;8309159;28;19971;-70
2021/12/14 07:55:11;;;;;;;;;;;8.40;99.90;;;;;;8362086;28;19979;-70
2021/12/14 07:59:17;;;;;;;;;;;8.40;99.90;;;;;;8375931;28;20007;-70
2021/12/14 08:03:25;;;;;;;;;;;8.40;99.90;;;;;;8379964;28;19963;-69
2021/12/14 08:07:29;;;;;;;;;;;8.40;99.90;;;;;;8383339;28;20015;-70
2021/12/14 08:15:41;;;;;;;;;;;8.40;99.90;;;;;;8386786;28;20548;-70
2021/12/14 08:19:43;;;;;;;;;;;8.40;99.90;;;;;;8389451;28;19928;-70
2021/12/14 08:23:50;;;;;;;;;;;8.50;99.90;;;;;;8389966;28;20364;-70
2021/12/14 08:28:00;;;;;;;;;;;8.50;99.90;;;;;;8392165;28;20424;-70
2021/12/14 08:32:12;;;;;;;;;;;8.50;99.90;;;;;;8385738;28;19970;-70
2021/12/14 08:36:14;;;;;;;;;;;8.60;99.90;;;;;;8387503;28;20398;-70
2021/12/14 08:40:26;;;;;;;;;;;8.50;99.90;;;;;;8387495;28;20347;-70
2021/12/14 08:44:35;;;;;;;;;;;8.60;99.90;;;;;;8385470;28;19925;-70
2021/12/14 08:48:38;;;;;;;;;;;8.60;99.90;;;;;;8384680;28;20030;-70
2021/12/14 08:52:41;;;;;;;;;;;8.60;99.90;;;;;;8385456;28;19928;-70
2021/12/14 08:56:47;;;;;;;;;;;8.60;99.90;;;;;;8383208;28;19987;-70
2021/12/14 09:00:50;;;;;;;;;;;8.70;99.90;;;;;;8391183;28;19924;-70
2021/12/14 09:04:54;;;;;;;;;;;8.70;99.90;;;;;;8386955;28;19943;-70
2021/12/14 09:09:00;;;;;;;;;;;8.70;99.90;;;;;;8389948;28;19928;-70
2021/12/14 09:13:05;;;;;;;;;;;8.70;99.90;;;;;;8389581;28;20376;-70
2021/12/14 09:17:09;;;;;;;;;;;8.70;99.90;;;;;;8371817;28;19971;-71
2021/12/14 09:21:12;;;;;;;;;;;8.70;99.90;;;;;;8389515;28;20356;-70
2021/12/14 09:25:16;;;;;;;;;;;8.70;99.90;;;;;;8387787;28;20054;-70
2021/12/14 09:29:19;;;;;;;;;;;8.70;99.90;;;;;;8388060;28;20336;-70
2021/12/14 09:33:21;;;;;;;;;;;8.70;99.90;;;;;;8389208;28;20374;-70
2021/12/14 09:37:24;;;;;;;;;;;8.70;99.90;;;;;;8385659;28;20374;-70
2021/12/14 09:41:28;;;;;;;;;;;8.80;99.90;;;;;;8384974;28;19959;-70
2021/12/14 09:45:34;;;;;;;;;;;8.80;99.90;;;;;;8387356;28;19924;-70
2021/12/14 09:49:37;;;;;;;;;;;8.80;99.90;;;;;;8384076;28;19928;-70
2021/12/14 09:53:43;;;;;;;;;;;8.80;99.90;;;;;;8383721;28;20518;-70
2021/12/14 09:57:48;;;;;;;;;;;8.90;99.90;;;;;;8382929;28;19968;-70
2021/12/14 10:01:53;;;;;;;;;;;8.80;99.90;;;;;;8382592;28;19968;-70
2021/12/14 10:05:57;;;;;;;;;;;8.80;99.90;;;;;;8384367;28;20034;-70
2021/12/14 10:10:00;;;;;;;;;;;8.90;99.90;;;;;;8384642;28;19924;-70
2021/12/14 10:14:02;;;;;;;;;;;8.90;99.90;;;;;;8384518;28;20066;-70
2021/12/14 10:18:14;;;;;;;;;;;8.90;99.90;;;;;;8382594;28;19968;-71
2021/12/14 10:22:25;;;;;;;;;;;8.90;99.90;;;;;;8382839;28;20063;-70
2021/12/14 10:26:31;;;;;;;;;;;8.90;99.90;;;;;;8381352;28;19928;-70
2021/12/14 10:30:35;;;;;;;;;;;8.90;99.90;;;;;;8361989;28;19925;-70
2021/12/14 10:34:40;;;;;;;;;;;9.00;99.90;;;;;;8380812;28;19975;-70
2021/12/14 10:39:04;;;;;;;;;;;9.00;99.90;;;;;;8379177;28;19932;-71
2021/12/14 10:43:13;;;;;;;;;;;9.00;99.90;;;;;;8380088;28;20015;-70
2021/12/14 10:47:16;;;;;;;;;;;9.10;99.90;;;;;;8380971;28;19966;-70
2021/12/14 10:51:24;;;;;;;;;;;9.10;99.90;;;;;;8383195;28;19970;-70
2021/12/14 10:55:34;;;;;;;;;;;9.20;99.90;;;;;;8373566;28;20032;-70
2021/12/14 10:59:38;;;;;;;;;;;9.20;99.90;;;;;;8383004;28;19928;-70
2021/12/14 11:03:45;;;;;;;;;;;9.20;99.90;;;;;;8364775;28;20548;-70
2021/12/14 11:07:48;;;;;;;;;;;9.20;99.90;;;;;;8384187;28;20011;-71
2021/12/14 11:11:51;;;;;;;;;;;9.30;99.90;;;;;;8366632;28;20050;-70
2021/12/14 11:15:55;;;;;;;;;;;9.30;99.90;;;;;;8381872;28;19990;-71
2021/12/14 11:20:05;;;;;;;;;;;9.30;99.90;;;;;;8383318;28;19982;-70
2021/12/14 11:24:07;;;;;;;;;;;9.30;99.90;;;;;;8381587;28;19978;-71
2021/12/14 11:28:11;;;;;;;;;;;9.30;99.90;;;;;;8383676;28;20016;-70
2021/12/14 11:32:17;;;;;;;;;;;9.30;99.90;;;;;;8395853;28;19925;-70
2021/12/14 11:36:19;;;;;;;;;;;9.30;99.90;;;;;;8386006;28;19932;-71
2021/12/14 11:40:23;;;;;;;;;;;9.30;99.90;;;;;;8384217;28;19924;-70
2021/12/14 11:44:28;;;;;;;;;;;9.30;99.90;;;;;;8385305;28;20015;-70
2021/12/14 11:48:32;;;;;;;;;;;9.30;99.90;;;;;;8393237;28;19925;-70
2021/12/14 11:52:36;;;;;;;;;;;9.40;99.90;;;;;;8392787;28;20391;-70
2021/12/14 11:56:38;;;;;;;;;;;9.40;99.90;;;;;;8392875;28;19968;-70
2021/12/14 12:00:42;;;;;;;;;;;9.40;99.90;;;;;;8372245;28;19995;-70
2021/12/14 12:04:47;;;;;;;;;;;9.40;99.90;;;;;;8391856;28;19930;-70
2021/12/14 12:13:09;;;;;;;;;;;9.30;99.90;;;;;;8391460;28;19978;-70
2021/12/14 12:17:25;;;;;;;;;;;9.30;99.90;;;;;;8392955;28;19928;-70
2021/12/14 12:21:28;;;;;;;;;;;9.30;99.90;;;;;;8388080;28;19963;-70
2021/12/14 12:25:35;;;;;;;;;;;9.30;99.90;;;;;;8388047;28;19925;-70
2021/12/14 12:29:37;;;;;;;;;;;9.30;99.90;;;;;;8386204;28;20603;-70
2021/12/14 12:33:41;;;;;;;;;;;9.20;99.90;;;;;;8388858;28;19932;-70
2021/12/14 12:37:44;;;;;;;;;;;9.20;99.90;;;;;;8382515;28;20007;-70
2021/12/14 12:41:56;;;;;;;;;;;9.20;99.90;;;;;;8383097;28;19943;-70
2021/12/14 12:46:01;;;;;;;;;;;9.20;99.90;;;;;;8383712;28;19928;-70
2021/12/14 12:50:03;;;;;;;;;;;9.20;99.90;;;;;;8369113;28;20046;-70
2021/12/14 12:54:28;;;;;;;;;;;9.20;99.90;;;;;;8388941;28;19975;-70
2021/12/14 12:58:30;;;;;;;;;;;9.20;99.90;;;;;;8359980;28;19952;-70
2021/12/14 13:02:35;;;;;;;;;;;9.20;99.90;;;;;;8387806;28;19966;-71
2021/12/14 13:06:37;;;;;;;;;;;9.30;99.90;;;;;;8387731;28;19968;-70
2021/12/14 13:10:54;;;;;;;;;;;9.30;99.90;;;;;;8401319;28;20348;-70
2021/12/14 13:14:56;;;;;;;;;;;9.30;99.90;;;;;;8370256;28;19972;-70
2021/12/14 13:19:00;;;;;;;;;;;9.30;99.90;;;;;;8387326;28;19935;-70
2021/12/14 13:23:02;;;;;;;;;;;9.30;99.90;;;;;;8385248;28;21880;-70
2021/12/14 13:27:04;;;;;;;;;;;9.30;99.90;;;;;;8382823;28;19935;-70
2021/12/14 13:31:06;;;;;;;;;;;9.30;99.90;;;;;;8379530;28;20395;-70
2021/12/14 13:35:07;;;;;;;;;;;9.40;99.90;;;;;;8383671;28;19925;-69
2021/12/14 13:39:10;;;;;;;;;;;9.40;99.90;;;;;;8377461;28;19924;-70
2021/12/14 13:43:18;;;;;;;;;;;9.40;99.90;;;;;;8311178;28;1953396;-70
2021/12/14 13:47:21;;;;;;;;;;;9.40;99.90;;;;;;8385320;28;19956;-70
2021/12/14 13:51:26;;;;;;;;;;;9.40;99.90;;;;;;8367117;28;19933;-70
2021/12/14 13:55:30;;;;;;;;;;;9.50;99.90;;;;;;8383387;28;19959;-70
2021/12/14 13:59:32;;;;;;;;;;;9.50;99.90;;;;;;8382028;28;20018;-70
2021/12/14 14:03:35;;;;;;;;;;;9.50;99.90;;;;;;8387742;28;19929;-70
2021/12/14 14:07:37;;;;;;;;;;;9.50;99.90;;;;;;8386306;28;19932;-70
2021/12/14 14:11:48;;;;;;;;;;;9.50;99.90;;;;;;8403931;28;19928;-71
2021/12/14 14:15:52;;;;;;;;;;;9.50;99.90;;;;;;8389513;28;19960;-70
2021/12/14 14:19:59;;;;;;;;;;;9.50;99.90;;;;;;8386959;28;19981;-70
2021/12/14 14:24:04;;;;;;;;;;;9.50;99.90;;;;;;8373864;28;20401;-70
2021/12/14 14:28:05;;;;;;;;;;;9.50;99.90;;;;;;8387794;28;19959;-70
2021/12/14 14:32:22;;;;;;;;;;;9.50;99.90;;;;;;8389072;28;20008;-71
2021/12/14 14:36:24;;;;;;;;;;;9.50;99.90;;;;;;8388099;28;19968;-70
2021/12/14 14:40:34;;;;;;;;;;;9.50;99.90;;;;;;8364955;28;19936;-70
2021/12/14 14:44:40;;;;;;;;;;;9.60;99.90;;;;;;8383470;28;20034;-69
2021/12/14 14:48:51;;;;;;;;;;;9.60;99.90;;;;;;8386557;28;19928;-70
2021/12/14 14:53:00;;;;;;;;;;;9.60;99.90;;;;;;8358616;28;20062;-70
2021/12/14 14:57:11;;;;;;;;;;;9.60;99.90;;;;;;8383233;28;19968;-70
2021/12/14 15:01:17;;;;;;;;;;;9.60;99.90;;;;;;8381720;28;20012;-70
2021/12/14 15:05:19;;;;;;;;;;;9.70;99.90;;;;;;8383142;28;20311;-70
2021/12/14 15:09:30;;;;;;;;;;;9.70;99.90;;;;;;8364690;28;19975;-70
2021/12/14 15:13:42;;;;;;;;;;;9.70;99.90;;;;;;8364111;28;19939;-70
2021/12/14 15:17:45;;;;;;;;;;;9.70;99.90;;;;;;8382611;28;19971;-70
2021/12/14 15:21:53;;;;;;;;;;;9.70;99.90;;;;;;8381886;28;19928;-70
2021/12/14 15:25:54;;;;;;;;;;;9.70;99.90;;;;;;8382297;28;19968;-70
2021/12/14 15:30:02;;;;;;;;;;;9.70;99.90;;;;;;8364976;28;19947;-70
2021/12/14 15:34:04;;;;;;;;;;;9.70;99.90;;;;;;8361282;28;19929;-70
2021/12/14 15:38:17;;;;;;;;;;;9.70;99.90;;;;;;8365667;28;19924;-70
2021/12/14 15:42:20;;;;;;;;;;;9.80;99.90;;;;;;8373523;28;19932;-70
2021/12/14 15:46:23;;;;;;;;;;;9.70;99.90;;;;;;8382397;28;20445;-70
2021/12/14 15:50:28;;;;;;;;;;;9.80;99.90;;;;;;8379949;28;19928;-70
2021/12/14 15:54:35;;;;;;;;;;;9.80;99.90;;;;;;8382440;28;20280;-70
2021/12/14 15:58:38;;;;;;;;;;;9.70;99.90;;;;;;8364036;28;19925;-70
2021/12/14 16:02:40;;;;;;;;;;;9.70;99.90;;;;;;8371539;28;19970;-70
2021/12/14 16:06:43;;;;;;;;;;;9.70;99.90;;;;;;8355245;28;19932;-70
2021/12/14 16:10:52;;;;;;;;;;;9.70;99.90;;;;;;8363952;28;19924;-70
2021/12/14 16:15:08;;;;;;;;;;;9.70;99.90;;;;;;8380932;28;19940;-70
2021/12/14 16:19:11;;;;;;;;;;;9.70;99.90;;;;;;8381484;28;19967;-70
2021/12/14 16:23:15;;;;;;;;;;;9.70;99.90;;;;;;8381779;28;20027;-70
2021/12/14 16:27:20;;;;;;;;;;;9.80;99.90;;;;;;8380810;28;19924;-70
2021/12/14 16:31:24;;;;;;;;;;;9.80;99.90;;;;;;8380336;28;19963;-70
2021/12/14 16:35:26;;;;;;;;;;;9.80;99.90;;;;;;8381985;28;19956;-70
2021/12/14 16:39:33;;;;;;;;;;;9.80;99.90;;;;;;8372430;28;19924;-70
2021/12/14 16:43:40;;;;;;;;;;;9.80;99.90;;;;;;8365710;28;20023;-70
2021/12/14 16:47:48;;;;;;;;;;;9.80;99.90;;;;;;8380704;28;20338;-70
2021/12/14 16:51:52;;;;;;;;;;;9.80;99.90;;;;;;8359739;28;19937;-70
2021/12/14 16:55:55;;;;;;;;;;;9.90;99.90;;;;;;8362206;28;20031;-70
2021/12/14 16:59:57;;;;;;;;;;;9.90;99.90;;;;;;8393598;28;20341;-70
2021/12/14 17:04:01;;;;;;;;;;;9.90;99.90;;;;;;8380047;28;19975;-70
2021/12/14 17:08:07;;;;;;;;;;;9.90;99.90;;;;;;8391506;28;20113;-70
2021/12/14 17:12:14;;;;;;;;;;;9.90;99.90;;;;;;8379424;28;20028;-70
2021/12/14 17:16:21;;;;;;;;;;;9.90;99.90;;;;;;8378152;28;19967;-70
2021/12/14 17:20:23;;;;;;;;;;;9.90;99.90;;;;;;8379395;28;19928;-70
2021/12/14 17:24:26;;;;;;;;;;;9.90;99.90;;;;;;8352593;28;20035;-70
2021/12/14 17:28:39;;;;;;;;;;;9.90;99.90;;;;;;8349473;28;19928;-70
2021/12/14 17:32:41;;;;;;;;;;;10.00;99.90;;;;;;8378921;28;19932;-70
2021/12/14 17:36:43;;;;;;;;;;;10.00;99.90;;;;;;8362458;28;19995;-70
2021/12/14 17:40:47;;;;;;;;;;;10.00;99.90;;;;;;8381209;28;19932;-70
2021/12/14 17:44:53;;;;;;;;;;;10.00;99.90;;;;;;8382017;28;20023;-70
2021/12/14 17:49:05;;;;;;;;;;;10.00;99.90;;;;;;8365693;28;19959;-70
2021/12/14 17:53:08;;;;;;;;;;;10.00;99.90;;;;;;8387138;28;20418;-70
2021/12/14 17:57:15;;;;;;;;;;;9.90;99.90;;;;;;8381754;28;20294;-70
2021/12/14 18:01:19;;;;;;;;;;;10.00;99.90;;;;;;8382476;28;19975;-70
2021/12/14 18:05:27;;;;;;;;;;;10.00;99.90;;;;;;8382907;28;19964;-70
2021/12/14 18:09:29;;;;;;;;;;;10.00;99.90;;;;;;8375272;28;19935;-70
2021/12/14 18:13:56;;;;;;;;;;;10.00;99.90;;;;;;8382953;28;20213;-70
2021/12/14 18:22:29;;;;;;;;;;;10.00;99.90;;;;;;8382751;28;20019;-70
2021/12/14 18:26:36;;;;;;;;;;;10.00;99.90;;;;;;8374384;28;19991;-70
2021/12/14 18:30:38;;;;;;;;;;;10.00;99.90;;;;;;8374200;28;20043;-70
2021/12/14 18:34:42;;;;;;;;;;;10.00;99.90;;;;;;8348335;28;20024;-70
2021/12/14 18:38:45;;;;;;;;;;;10.00;99.90;;;;;;8359219;28;19972;-70
2021/12/14 18:42:48;;;;;;;;;;;10.00;99.90;;;;;;8345238;28;19944;-70
2021/12/14 18:51:16;;;;;;;;;;;10.00;99.90;;;;;;8360120;28;19931;-70
2021/12/14 18:55:20;;;;;;;;;;;10.00;99.90;;;;;;8359395;28;19925;-70
2021/12/14 18:59:24;;;;;;;;;;;10.00;99.90;;;;;;8366128;28;19932;-70
2021/12/14 19:03:31;;;;;;;;;;;10.00;99.90;;;;;;8362819;28;21058;-70
2021/12/14 19:07:36;;;;;;;;;;;10.00;99.90;;;;;;8371582;28;19955;-70
2021/12/14 19:11:38;;;;;;;;;;;10.00;99.90;;;;;;8376766;28;20340;-70
2021/12/14 19:15:40;;;;;;;;;;;10.00;99.90;;;;;;8373559;28;19956;-70
2021/12/14 19:19:43;;;;;;;;;;;9.90;99.90;;;;;;8371932;28;19933;-70
2021/12/14 19:23:48;;;;;;;;;;;9.90;99.90;;;;;;8372738;28;19943;-70
2021/12/14 19:27:51;;;;;;;;;;;9.90;99.90;;;;;;8370913;28;20295;-70
2021/12/14 19:31:56;;;;;;;;;;;9.90;99.90;;;;;;8374603;28;19960;-70
2021/12/14 19:35:58;;;;;;;;;;;9.90;99.90;;;;;;8384610;28;20490;-69
2021/12/14 19:40:03;;;;;;;;;;;9.90;99.90;;;;;;8384488;28;20015;-69
2021/12/14 19:44:13;;;;;;;;;;;9.90;99.90;;;;;;8383579;28;19974;-69
2021/12/14 19:48:20;;;;;;;;;;;10.00;99.90;;;;;;8385189;28;20937;-69
2021/12/14 19:52:22;;;;;;;;;;;10.00;99.90;;;;;;8381009;28;19971;-69
2021/12/14 19:56:24;;;;;;;;;;;10.00;99.90;;;;;;8383370;28;19955;-70
2021/12/14 20:00:35;;;;;;;;;;;10.00;99.90;;;;;;8382342;28;19971;-70
2021/12/14 20:04:37;;;;;;;;;;;10.00;99.90;;;;;;8382917;28;19925;-70
2021/12/14 20:08:46;;;;;;;;;;;10.00;99.90;;;;;;8386553;28;19968;-69
2021/12/14 20:12:49;;;;;;;;;;;10.00;99.90;;;;;;8385829;28;19959;-69
2021/12/14 20:16:52;;;;;;;;;;;10.10;99.90;;;;;;8386068;28;19924;-69
2021/12/14 20:20:55;;;;;;;;;;;10.10;99.90;;;;;;8382763;28;19967;-70
2021/12/14 20:24:58;;;;;;;;;;;10.10;99.90;;;;;;8391534;28;19924;-70
2021/12/14 20:29:11;;;;;;;;;;;10.10;99.90;;;;;;8372342;28;20392;-70
2021/12/14 20:33:20;;;;;;;;;;;10.10;99.90;;;;;;8391064;28;19944;-70
2021/12/14 20:37:27;;;;;;;;;;;10.10;99.90;;;;;;8387081;28;19935;-70
2021/12/14 20:41:32;;;;;;;;;;;10.10;99.90;;;;;;8388330;28;19979;-70
2021/12/14 20:45:59;;;;;;;;;;;10.10;99.90;;;;;;8362548;28;19940;-70
2021/12/14 20:49:58;;;;;;;;;;;10.10;99.90;;;;;;8380260;28;20019;-69
2021/12/14 20:54:03;;;;;;;;;;;10.10;99.90;;;;;;8362776;28;19928;-70
2021/12/14 20:58:06;;;;;;;;;;;10.10;99.90;;;;;;8383226;28;20019;-69
2021/12/14 21:02:20;;;;;;;;;;;10.10;99.90;;;;;;8382603;28;19964;-70
2021/12/14 21:06:25;;;;;;;;;;;10.10;99.90;;;;;;8360610;28;20355;-70
2021/12/14 21:10:26;;;;;;;;;;;10.10;99.90;;;;;;8377950;28;20023;-69
2021/12/14 21:14:51;;;;;;;;;;;10.10;99.90;;;;;;8383343;28;19968;-70
2021/12/14 21:18:53;;;;;;;;;;;10.10;99.90;;;;;;8378422;28;19975;-70
2021/12/14 21:22:57;;;;;;;;;;;10.10;99.90;;;;;;8383124;28;20035;-69
2021/12/14 21:27:06;;;;;;;;;;;10.00;99.90;;;;;;8380428;28;20489;-70
2021/12/14 21:31:10;;;;;;;;;;;10.00;99.90;;;;;;8363101;28;19936;-69
2021/12/14 21:35:24;;;;;;;;;;;10.00;99.90;;;;;;8389374;28;19959;-70
2021/12/14 21:39:28;;;;;;;;;;;10.00;99.90;;;;;;8385367;28;19956;-69
2021/12/14 21:43:34;;;;;;;;;;;10.00;99.90;;;;;;8385446;28;19934;-69
2021/12/14 21:47:36;;;;;;;;;;;10.00;99.90;;;;;;8369303;28;19933;-69
2021/12/14 21:51:37;;;;;;;;;;;10.00;99.90;;;;;;8388523;28;19963;-69
2021/12/14 21:55:39;;;;;;;;;;;10.00;99.90;;;;;;8388781;28;19924;-69
2021/12/14 21:59:43;;;;;;;;;;;10.00;99.90;;;;;;8388384;28;19925;-70
2021/12/14 22:03:48;;;;;;;;;;;10.00;99.90;;;;;;8389389;28;19959;-69
2021/12/14 22:07:50;;;;;;;;;;;10.00;99.90;;;;;;8387977;28;19970;-69
2021/12/14 22:11:58;;;;;;;;;;;9.90;99.90;;;;;;8389770;28;19932;-69
2021/12/14 22:16:02;;;;;;;;;;;9.90;99.90;;;;;;8392880;28;20019;-69
2021/12/14 22:20:05;;;;;;;;;;;9.90;99.90;;;;;;8400567;28;19928;-69
2021/12/14 22:24:07;;;;;;;;;;;9.90;99.90;;;;;;8411945;28;19979;-69
2021/12/14 22:28:09;;;;;;;;;;;9.90;99.90;;;;;;8385505;28;19975;-69
2021/12/14 22:32:12;;;;;;;;;;;10.00;99.90;;;;;;8396033;28;19971;-69
2021/12/14 22:36:14;;;;;;;;;;;9.90;99.90;;;;;;8390609;28;19932;-70
2021/12/14 22:40:19;;;;;;;;;;;10.00;99.90;;;;;;8382261;28;20576;-70
2021/12/14 22:44:21;;;;;;;;;;;9.90;99.90;;;;;;8389989;28;19982;-69
2021/12/14 22:48:23;;;;;;;;;;;9.90;99.90;;;;;;8377063;28;19925;-69
2021/12/14 22:52:28;;;;;;;;;;;9.90;99.90;;;;;;8392236;28;19924;-69
2021/12/14 22:56:29;;;;;;;;;;;9.90;99.90;;;;;;8391719;28;19932;-69
2021/12/14 23:00:42;;;;;;;;;;;9.90;99.90;;;;;;8388213;28;19924;-69
2021/12/14 23:04:45;;;;;;;;;;;9.90;99.90;;;;;;8391733;28;19931;-70
2021/12/14 23:08:48;;;;;;;;;;;9.90;99.90;;;;;;8370206;28;20007;-69
2021/12/14 23:12:52;;;;;;;;;;;9.90;99.90;;;;;;8392254;28;20265;-69
2021/12/14 23:16:56;;;;;;;;;;;9.90;99.90;;;;;;8394219;28;19933;-69
2021/12/14 23:20:58;;;;;;;;;;;9.90;99.90;;;;;;8388618;28;20324;-69
2021/12/14 23:25:01;;;;;;;;;;;9.90;99.90;;;;;;8375956;28;19925;-69
2021/12/14 23:29:03;;;;;;;;;;;9.90;99.90;;;;;;8396220;28;19964;-70
2021/12/14 23:33:05;;;;;;;;;;;9.90;99.90;;;;;;8388700;28;19943;-70
2021/12/14 23:37:06;;;;;;;;;;;9.90;99.90;;;;;;8389026;28;20019;-69
2021/12/14 23:41:08;;;;;;;;;;;9.90;99.90;;;;;;8378556;28;19940;-69
2021/12/14 23:45:14;;;;;;;;;;;9.90;99.90;;;;;;8397997;28;19928;-69
2021/12/14 23:49:15;;;;;;;;;;;9.90;99.90;;;;;;8387727;28;20343;-70
2021/12/14 23:53:17;;;;;;;;;;;9.90;99.90;;;;;;8387523;28;19975;-69
2021/12/14 23:57:19;;;;;;;;;;;9.90;99.90;;;;;;8407750;28;19968;-69
